Peterborough, United Kingdom
Current Conditions -  °F | °C
As of 11:50 AM on Thursday 18 Dec 2014 (Local Time) from EGXT Reporting Station
Scattered Clouds Scattered Clouds  
Wind Chill: 57°   Ceiling: Unl
Heat Index: 57°   Visibility: 6mi
Dew Point: 50°   Wind: 29mph
Humidity: 77%   Direction: 240°WSW
Pressure: 29.65"   Gusts: NA
Location:  52.57°N, 0.24°W
Report Text: EGXT 181150Z AUTO 24025KT 9999 FEW019/// SCT190/// 14/10 Q1004
Loading
Personal Weather Stations






























Interactive Weather Map New forecast layout! Learn more

10-Day Weather Forecast

Advertisements
Track Severe Weather on mobile